Tropical Cyclones
[Index]
Main Index Home Page Stock Weather Photos Extreme Storms Discussion Storm News and Storm Chasing Reports Tropical Cyclones / Hurricanes / Typhoons Weather Data and Links Wild Fires / Bushfires Weather Observation Techniques Weather Picture Catalogue Tornado Pictures and Reports Stock Video Footage and DVDs for sale
Season 1996-1997 Tropical Cyclone RHONDA Track Map
Season 1996-1997 Summaries: [BoM-AU] [JTWC-AU] [JTWC-SIO] [JTWC-SPAC] [JTWC-SH]
<<- Previous TC | JTWC 1996-1997 Season | Next TC ->>

click for intensity scale information  Lat/long Grid: Show Hide

 Date Labels: Show Hide

Joint Typhoon Warning Centre Cyclone Data

Name: RHONDA

04 May 1997 12:00 UTC to 17 May 1997 12:00 UTC

    date/time    lat    long     hPa   cat  kts
1997-05-04 12    8.1    79.4                  15          
1997-05-04 18    8.0    79.0                  15          
1997-05-05 00    7.9    78.6                  15          
1997-05-05 06    7.7    78.2                  15          
1997-05-05 12    7.5    77.9                  15          
1997-05-05 18    7.3    77.6                  15          
1997-05-06 00    7.1    77.1                  15          
1997-05-06 06    7.0    76.6                  15          
1997-05-06 12    7.0    76.1                  15          
1997-05-06 18    7.3    75.8                  15          
1997-05-07 00    7.7    75.6                  15          
1997-05-07 06    8.0    75.5                  15          
1997-05-07 12    8.3    75.4                  15          
1997-05-07 18    8.7    75.5                  15          
1997-05-08 00    9.0    75.8                  15          
1997-05-08 06    9.4    76.2                  20          
1997-05-08 12    9.7    76.9                  20          
1997-05-08 18   10.0    77.9                  20          
1997-05-09 00   10.3    79.2                  20          
1997-05-09 06   10.6    80.6                  20          
1997-05-09 12   10.9    82.1                  20          
1997-05-09 18   11.2    83.6                  25          
1997-05-10 00   11.5    84.9                  25          
1997-05-10 06   11.6    86.1                  25          
1997-05-10 12   11.5    87.4                  30          
1997-05-10 18   11.4    88.7                  35          
1997-05-11 00   11.5    89.9            1     40          
1997-05-11 06   11.6    90.5            1     45          
1997-05-11 12   11.7    90.9            1     45          
1997-05-11 18   11.8    91.3            1     45          
1997-05-12 00   12.0    91.7            1     50          
1997-05-12 06   12.3    92.0            2     55          
1997-05-12 12   12.6    92.4            2     60          
1997-05-12 18   12.9    92.8            2     65          
1997-05-13 00   13.2    93.3            2     70          
1997-05-13 06   13.5    93.8            3     75          
1997-05-13 12   13.9    94.3            3     80          
1997-05-13 18   14.6    95.1            3     90          
1997-05-14 00   15.4    96.1            4    100          
1997-05-14 06   16.3    97.1            4    100          
1997-05-14 12   17.2    98.2            4    100          
1997-05-14 18   18.1    99.3            3     95          
1997-05-15 00   19.1   100.3            3     75          
1997-05-15 06   19.8   101.7            2     65          
1997-05-15 12   20.7   103.6            2     60          
1997-05-15 18   21.7   105.7            2     55          
1997-05-16 00   23.1   107.6            1     45          
1997-05-16 06   24.1   108.8            1     40          
1997-05-16 12   24.8   109.6                  35          
1997-05-16 18   25.3   110.2                  30          
1997-05-17 00   25.8   110.8                  30          
1997-05-17 06   26.3   111.3                  30          
1997-05-17 12   26.8   111.8                  25          
Winds are 1-min average.

Tropical cyclone tracks developed by Michael Bath using data from the Joint Typhoon Warning Centre Best Tracks and Google Maps.


[Australian Severe Weather index] [Copyright Notice] [Email Contacts] [Search This Site] [Privacy Policy]
Document: tropical_cyclone_rhonda.htm Updated: 18 September 2016